createdAt,value
2023-09-29T00:05:02.235Z,23.80
2023-09-29T00:10:09.340Z,23.80
2023-09-29T00:15:14.108Z,23.70
2023-09-29T00:20:23.344Z,23.80
2023-09-29T00:25:28.236Z,23.70
2023-09-29T00:30:32.440Z,23.80
2023-09-29T00:35:35.375Z,23.70
2023-09-29T00:40:38.281Z,23.70
2023-09-29T00:45:43.466Z,23.80
2023-09-29T00:50:47.491Z,23.70
2023-09-29T00:55:50.712Z,23.70
2023-09-29T01:00:55.228Z,23.70
2023-09-29T01:05:58.153Z,23.60
2023-09-29T01:11:03.531Z,23.70
2023-09-29T01:16:07.888Z,23.70
2023-09-29T01:21:10.725Z,23.60
2023-09-29T01:26:15.183Z,23.70
2023-09-29T01:31:18.181Z,23.70
2023-09-29T01:36:21.109Z,23.70
2023-09-29T01:41:26.198Z,23.60
2023-09-29T01:46:30.516Z,23.60
2023-09-29T01:51:33.379Z,23.60
2023-09-29T01:56:37.722Z,23.60
2023-09-29T02:01:40.666Z,23.60
2023-09-29T02:06:44.125Z,23.60
2023-09-29T02:11:49.403Z,23.60
2023-09-29T02:16:52.285Z,23.60
2023-09-29T02:21:57.157Z,23.50
2023-09-29T02:27:01.468Z,23.60
2023-09-29T02:32:04.408Z,23.60
2023-09-29T02:37:08.665Z,23.60
2023-09-29T02:42:12.826Z,23.60
2023-09-29T02:47:15.878Z,23.50
2023-09-29T02:52:18.749Z,23.50
2023-09-29T02:57:23.411Z,23.40
2023-09-29T03:02:26.545Z,23.50
2023-09-29T03:07:29.526Z,23.50
2023-09-29T03:12:33.822Z,23.50
2023-09-29T03:17:36.797Z,23.50
2023-09-29T03:22:39.902Z,23.40
2023-09-29T03:27:44.738Z,23.50
2023-09-29T03:32:47.728Z,23.50
2023-09-29T03:37:50.842Z,23.50
2023-09-29T03:42:56.965Z,23.50
2023-09-29T03:48:00.460Z,23.40
2023-09-29T03:53:03.838Z,23.50
2023-09-29T03:58:08.067Z,23.50
2023-09-29T04:03:11.023Z,23.40
2023-09-29T04:08:14.137Z,23.50
2023-09-29T04:13:18.392Z,23.40
2023-09-29T04:18:21.352Z,23.40
2023-09-29T04:23:25.238Z,23.40
2023-09-29T04:28:29.394Z,23.40
2023-09-29T04:33:32.895Z,23.40
2023-09-29T04:38:36.191Z,23.40
2023-09-29T04:43:40.633Z,23.50
2023-09-29T04:48:43.930Z,23.40
2023-09-29T04:53:47.306Z,23.40
2023-09-29T04:58:51.581Z,23.40
2023-09-29T05:03:54.683Z,23.40
2023-09-29T05:08:59.109Z,23.40
2023-09-29T05:14:06.997Z,23.40
2023-09-29T05:19:11.177Z,23.40
2023-09-29T05:24:14.132Z,23.40
2023-09-29T05:29:18.371Z,23.40
2023-09-29T05:34:21.218Z,23.30
2023-09-29T05:39:25.048Z,23.30
2023-09-29T05:44:29.276Z,23.40
2023-09-29T05:49:33.632Z,23.30
2023-09-29T05:54:36.494Z,23.30
2023-09-29T05:59:40.772Z,23.30
2023-09-29T06:04:43.771Z,23.30
2023-09-29T06:09:46.665Z,23.30
2023-09-29T06:14:50.951Z,23.30
2023-09-29T06:19:54.028Z,23.40
2023-09-29T06:24:56.992Z,23.30
2023-09-29T06:30:01.290Z,23.30
2023-09-29T06:35:04.568Z,23.40
2023-09-29T06:40:11.924Z,23.40
2023-09-29T06:45:16.149Z,23.40
2023-09-29T06:50:19.240Z,23.30
2023-09-29T06:55:22.338Z,23.40
2023-09-29T07:00:26.558Z,23.40
2023-09-29T07:05:29.596Z,23.40
2023-09-29T07:10:32.514Z,23.40
2023-09-29T07:15:36.699Z,23.40
2023-09-29T07:20:39.621Z,23.30
2023-09-29T07:25:43.029Z,23.30
2023-09-29T07:30:48.387Z,23.30
2023-09-29T07:35:51.491Z,23.40
2023-09-29T07:40:54.477Z,23.40
2023-09-29T07:45:58.757Z,23.40
2023-09-29T07:51:01.686Z,23.40
2023-09-29T07:56:04.672Z,23.50
2023-09-29T08:01:08.980Z,23.50
2023-09-29T08:06:12.080Z,23.60
2023-09-29T08:11:15.015Z,23.70
2023-09-29T08:16:19.505Z,23.70
2023-09-29T08:21:22.492Z,23.80
2023-09-29T08:26:25.369Z,23.80
2023-09-29T08:31:29.927Z,23.90
2023-09-29T08:36:32.874Z,23.80
2023-09-29T08:41:38.061Z,23.90
2023-09-29T08:46:42.721Z,23.90
2023-09-29T08:51:47.649Z,23.90
2023-09-29T08:56:50.710Z,24.00
2023-09-29T09:01:56.546Z,24.00
2023-09-29T09:06:59.816Z,24.00
2023-09-29T09:12:02.760Z,24.10
2023-09-29T09:17:09.123Z,24.00
2023-09-29T09:22:16.682Z,24.10
2023-09-29T09:27:20.604Z,24.10
2023-09-29T09:32:28.892Z,24.00
2023-09-29T09:37:32.204Z,24.10
2023-09-29T09:42:35.236Z,24.10
2023-09-29T09:47:39.919Z,24.20
2023-09-29T09:52:43.264Z,24.20
2023-09-29T09:57:51.119Z,24.30
2023-09-29T10:02:57.379Z,24.30
2023-09-29T10:08:06.786Z,24.30
2023-09-29T10:13:12.917Z,24.30
2023-09-29T10:18:19.188Z,24.30
2023-09-29T10:23:22.430Z,24.30
2023-09-29T10:28:32.351Z,24.40
2023-09-29T10:33:48.952Z,24.40
2023-09-29T10:38:52.094Z,24.50
2023-09-29T10:44:00.077Z,24.50
2023-09-29T10:49:04.466Z,24.50
2023-09-29T10:54:08.950Z,24.40
2023-09-29T10:59:12.050Z,24.40
2023-09-29T11:04:16.971Z,24.40
2023-09-29T11:09:23.077Z,24.40
2023-09-29T11:14:30.898Z,24.40
2023-09-29T11:19:37.052Z,24.40
2023-09-29T11:24:41.865Z,24.40
2023-09-29T11:29:45.558Z,24.50
2023-09-29T11:34:49.975Z,24.50
2023-09-29T11:39:52.933Z,24.50
2023-09-29T11:44:55.871Z,24.60
2023-09-29T11:50:00.085Z,24.60
2023-09-29T11:55:04.978Z,24.70
2023-09-29T12:00:10.468Z,24.70
2023-09-29T12:05:14.806Z,24.70
2023-09-29T12:10:18.121Z,24.80
2023-09-29T12:15:22.732Z,24.70
2023-09-29T12:20:28.452Z,24.70
2023-09-29T12:25:32.447Z,24.80
2023-09-29T12:30:35.545Z,24.80
2023-09-29T12:35:39.774Z,24.70
2023-09-29T12:40:43.862Z,24.80
2023-09-29T12:45:46.824Z,24.70
2023-09-29T12:50:51.249Z,24.70
2023-09-29T12:55:54.365Z,24.70
2023-09-29T13:00:58.331Z,24.70
2023-09-29T13:06:04.532Z,24.70
2023-09-29T13:11:07.664Z,24.80
2023-09-29T13:16:12.349Z,24.90
2023-09-29T13:21:16.656Z,25.00
2023-09-29T13:26:19.643Z,24.90
2023-09-29T13:31:22.606Z,25.00
2023-09-29T13:36:27.041Z,24.90
2023-09-29T13:41:33.334Z,25.10
2023-09-29T13:46:45.069Z,25.00
2023-09-29T13:51:56.478Z,25.10
2023-09-29T13:57:00.929Z,25.10
2023-09-29T14:02:08.649Z,25.10
2023-09-29T14:07:13.283Z,25.20
2023-09-29T14:12:16.220Z,25.10
2023-09-29T14:17:19.123Z,25.10
2023-09-29T14:22:23.310Z,25.10
2023-09-29T14:27:26.296Z,25.20
2023-09-29T14:32:29.326Z,25.20
2023-09-29T14:37:33.773Z,25.30
2023-09-29T14:42:36.731Z,25.40
2023-09-29T14:47:39.616Z,25.50
2023-09-29T14:52:44.001Z,25.50
2023-09-29T14:57:46.939Z,25.60
2023-09-29T15:02:49.839Z,25.60
2023-09-29T15:07:54.082Z,25.50
2023-09-29T15:12:56.939Z,25.50
2023-09-29T15:18:00.875Z,25.70
2023-09-29T15:23:05.463Z,25.90
2023-09-29T15:28:09.879Z,25.90
2023-09-29T15:33:13.883Z,26.10
2023-09-29T15:38:18.237Z,26.30
2023-09-29T15:43:21.582Z,26.60
2023-09-29T15:48:26.020Z,26.90
2023-09-29T15:53:30.281Z,27.20
2023-09-29T15:58:33.246Z,27.60
2023-09-29T16:03:36.355Z,28.10
2023-09-29T16:08:41.982Z,28.30
2023-09-29T16:13:45.501Z,28.60
2023-09-29T16:18:48.411Z,28.60
2023-09-29T16:23:52.706Z,28.70
2023-09-29T16:28:55.597Z,28.30
2023-09-29T16:33:59.139Z,27.70
2023-09-29T16:39:04.336Z,27.20
2023-09-29T16:44:10.108Z,27.00
2023-09-29T16:49:17.034Z,26.80
2023-09-29T16:54:21.316Z,26.60
2023-09-29T16:59:24.279Z,26.40
2023-09-29T17:04:27.143Z,26.30
2023-09-29T17:09:31.954Z,26.10
2023-09-29T17:14:35.332Z,25.90
2023-09-29T17:19:38.874Z,25.90
2023-09-29T17:24:43.586Z,25.80
2023-09-29T17:29:47.665Z,25.80
2023-09-29T17:34:50.859Z,25.60
2023-09-29T17:39:55.447Z,25.60
2023-09-29T17:44:58.887Z,25.50
2023-09-29T17:50:01.767Z,25.40
2023-09-29T17:55:07.325Z,25.40
2023-09-29T18:00:11.465Z,25.30
2023-09-29T18:05:16.012Z,25.30
2023-09-29T18:10:21.120Z,25.20
2023-09-29T18:15:24.114Z,25.20
2023-09-29T18:20:27.039Z,25.10
2023-09-29T18:25:31.281Z,25.10
2023-09-29T18:30:34.244Z,25.10
2023-09-29T18:35:37.151Z,25.00
2023-09-29T18:40:41.555Z,24.90
2023-09-29T18:45:44.476Z,25.00
2023-09-29T18:50:47.396Z,24.90
2023-09-29T18:55:53.287Z,24.90
2023-09-29T19:00:57.174Z,24.90
2023-09-29T19:06:04.724Z,24.80
2023-09-29T19:11:18.764Z,24.80
2023-09-29T19:16:21.695Z,24.90
2023-09-29T19:21:24.891Z,24.70
2023-09-29T19:26:31.066Z,24.80
2023-09-29T19:31:35.950Z,24.70
2023-09-29T19:36:38.965Z,24.80
2023-09-29T19:41:43.259Z,24.70
2023-09-29T19:46:46.190Z,24.70
2023-09-29T19:51:49.066Z,24.60
2023-09-29T19:56:53.256Z,24.70
2023-09-29T20:01:56.173Z,24.70
2023-09-29T20:06:59.597Z,24.70
2023-09-29T20:12:05.328Z,24.60
2023-09-29T20:17:08.304Z,24.60
2023-09-29T20:22:11.752Z,24.60
2023-09-29T20:27:15.961Z,24.60
2023-09-29T20:32:20.162Z,24.60
2023-09-29T20:37:23.109Z,24.50
2023-09-29T20:42:27.411Z,24.60
2023-09-29T20:47:31.367Z,24.50
2023-09-29T20:52:34.600Z,24.50
2023-09-29T20:57:39.936Z,24.60
2023-09-29T21:02:42.954Z,24.60
2023-09-29T21:07:45.849Z,24.60
2023-09-29T21:12:50.643Z,24.60
2023-09-29T21:17:53.633Z,24.60
2023-09-29T21:22:56.530Z,24.50
2023-09-29T21:28:00.757Z,24.60
2023-09-29T21:33:03.803Z,24.50
2023-09-29T21:38:07.254Z,24.60
2023-09-29T21:43:13.444Z,24.50
2023-09-29T21:48:17.090Z,24.50
2023-09-29T21:53:20.015Z,24.60
2023-09-29T21:58:24.263Z,24.50
2023-09-29T22:03:27.309Z,24.50
2023-09-29T22:08:30.293Z,24.40
2023-09-29T22:13:34.474Z,24.50
2023-09-29T22:18:37.473Z,24.40
2023-09-29T22:23:41.673Z,24.50
2023-09-29T22:28:46.063Z,24.50
2023-09-29T22:33:49.039Z,24.40
2023-09-29T22:38:51.975Z,24.40
2023-09-29T22:43:56.976Z,24.40
2023-09-29T22:49:01.443Z,24.50
2023-09-29T22:54:04.462Z,24.40
2023-09-29T22:59:08.860Z,24.50
2023-09-29T23:04:11.767Z,24.40
2023-09-29T23:09:15.689Z,24.40
2023-09-29T23:14:22.336Z,24.40
2023-09-29T23:19:25.473Z,24.50
2023-09-29T23:24:28.385Z,24.50
2023-09-29T23:29:34.320Z,24.40
2023-09-29T23:34:38.654Z,24.40
2023-09-29T23:39:41.773Z,24.40
2023-09-29T23:44:46.863Z,24.40
2023-09-29T23:49:49.801Z,24.40
2023-09-29T23:54:54.097Z,24.40
2023-09-29T23:59:58.531Z,24.40
